Terminal Aerodrome Forecast
Issued by NWS

Home | Current Version | Previous Version | Graphics & Text | Print | Product List | Glossary On
Versions: 1 2 3 4 5 6 7 8 9 10 11 12 13 14 15 16 17 18 19 20 21
982
FTUS43 KABR 152332
TAFMBG
TAF
KMBG 152332Z 1600/1624 04006KT P6SM BKN200
     FM160400 10009KT P6SM SCT200
     FM160700 12014KT P6SM SCT250
     FM161100 13020G28KT P6SM BKN200
     FM162100 15014KT P6SM SCT250=

USA.gov is the U.S. government's official web portal to all federal, state and local government web resources and services.